METAR Torp

ENTO 300350Z AUTO 03006KT 9999 NCD 01/01 Q1009

METAR Gardermoen

ENGM 300350Z 34004KT 310V020 2100 0550SE R19R/P2000N R01R/0650N R19L/0900U R01L/P2000N PRFG VV002 00/00 Q1009

Webcam Kjeller